sensor_id;sensor_type;location;lat;lon;timestamp;temperature;humidity
70986;DHT22;58645;43.068;25.610;2022-09-09T00:01:08;22.00;55.40
70986;DHT22;58645;43.068;25.610;2022-09-09T00:06:31;22.00;55.50
70986;DHT22;58645;43.068;25.610;2022-09-09T00:09:19;22.00;55.60
70986;DHT22;58645;43.068;25.610;2022-09-09T00:11:51;21.90;55.60
70986;DHT22;58645;43.068;25.610;2022-09-09T00:22:57;21.90;56.00
70986;DHT22;58645;43.068;25.610;2022-09-09T00:25:34;21.90;56.00
70986;DHT22;58645;43.068;25.610;2022-09-09T00:28:08;21.90;55.90
70986;DHT22;58645;43.068;25.610;2022-09-09T00:30:40;21.90;55.80
70986;DHT22;58645;43.068;25.610;2022-09-09T00:33:11;21.90;55.80
70986;DHT22;58645;43.068;25.610;2022-09-09T00:38:36;21.80;56.00
70986;DHT22;58645;43.068;25.610;2022-09-09T00:41:36;21.80;55.90
70986;DHT22;58645;43.068;25.610;2022-09-09T00:44:30;21.90;56.00
70986;DHT22;58645;43.068;25.610;2022-09-09T00:52:26;21.80;56.00
70986;DHT22;58645;43.068;25.610;2022-09-09T00:55:04;21.80;56.00
70986;DHT22;58645;43.068;25.610;2022-09-09T00:57:35;21.80;56.00
70986;DHT22;58645;43.068;25.610;2022-09-09T01:00:23;21.80;56.20
70986;DHT22;58645;43.068;25.610;2022-09-09T01:07:53;21.70;56.40
70986;DHT22;58645;43.068;25.610;2022-09-09T01:13:04;21.70;56.50
70986;DHT22;58645;43.068;25.610;2022-09-09T01:15:34;21.70;56.60
70986;DHT22;58645;43.068;25.610;2022-09-09T01:18:15;21.60;56.60
70986;DHT22;58645;43.068;25.610;2022-09-09T01:21:00;21.60;56.80
70986;DHT22;58645;43.068;25.610;2022-09-09T01:28:52;21.50;57.10
70986;DHT22;58645;43.068;25.610;2022-09-09T01:32:00;21.50;57.10
70986;DHT22;58645;43.068;25.610;2022-09-09T01:34:38;21.50;57.10
70986;DHT22;58645;43.068;25.610;2022-09-09T01:37:09;21.50;57.40
70986;DHT22;58645;43.068;25.610;2022-09-09T01:39:37;21.40;57.30
70986;DHT22;58645;43.068;25.610;2022-09-09T01:42:07;21.40;57.20
70986;DHT22;58645;43.068;25.610;2022-09-09T01:44:34;21.40;57.10
70986;DHT22;58645;43.068;25.610;2022-09-09T01:47:01;21.50;57.20
70986;DHT22;58645;43.068;25.610;2022-09-09T01:49:27;21.40;57.40
70986;DHT22;58645;43.068;25.610;2022-09-09T01:51:55;21.40;57.40
70986;DHT22;58645;43.068;25.610;2022-09-09T01:54:25;21.40;57.20
70986;DHT22;58645;43.068;25.610;2022-09-09T01:57:10;21.40;57.10
70986;DHT22;58645;43.068;25.610;2022-09-09T01:59:51;21.40;57.20
70986;DHT22;58645;43.068;25.610;2022-09-09T02:08:11;21.30;57.20
70986;DHT22;58645;43.068;25.610;2022-09-09T02:13:15;21.30;57.00
70986;DHT22;58645;43.068;25.610;2022-09-09T02:18:12;21.20;57.00
70986;DHT22;58645;43.068;25.610;2022-09-09T02:20:39;21.20;56.90
70986;DHT22;58645;43.068;25.610;2022-09-09T02:23:07;21.20;56.60
70986;DHT22;58645;43.068;25.610;2022-09-09T02:25:35;21.20;56.70
70986;DHT22;58645;43.068;25.610;2022-09-09T02:28:04;21.20;56.80
70986;DHT22;58645;43.068;25.610;2022-09-09T02:30:33;21.10;56.80
70986;DHT22;58645;43.068;25.610;2022-09-09T02:33:02;21.20;56.80
70986;DHT22;58645;43.068;25.610;2022-09-09T02:35:30;21.10;56.80
70986;DHT22;58645;43.068;25.610;2022-09-09T02:38:02;21.10;56.80
70986;DHT22;58645;43.068;25.610;2022-09-09T02:40:29;21.10;56.80
70986;DHT22;58645;43.068;25.610;2022-09-09T02:42:55;21.00;56.90
70986;DHT22;58645;43.068;25.610;2022-09-09T02:45:25;21.00;57.10
70986;DHT22;58645;43.068;25.610;2022-09-09T02:48:14;21.00;57.40
70986;DHT22;58645;43.068;25.610;2022-09-09T02:50:59;20.90;57.20
70986;DHT22;58645;43.068;25.610;2022-09-09T02:53:47;20.90;57.40
70986;DHT22;58645;43.068;25.610;2022-09-09T02:56:17;20.90;57.50
70986;DHT22;58645;43.068;25.610;2022-09-09T02:58:45;20.80;57.70
70986;DHT22;58645;43.068;25.610;2022-09-09T03:01:12;20.80;57.70
70986;DHT22;58645;43.068;25.610;2022-09-09T03:03:38;20.80;57.90
70986;DHT22;58645;43.068;25.610;2022-09-09T03:06:04;20.70;57.60
70986;DHT22;58645;43.068;25.610;2022-09-09T03:08:31;20.70;57.60
70986;DHT22;58645;43.068;25.610;2022-09-09T03:10:59;20.70;57.90
70986;DHT22;58645;43.068;25.610;2022-09-09T03:13:27;20.60;57.80
70986;DHT22;58645;43.068;25.610;2022-09-09T03:15:52;20.60;57.90
70986;DHT22;58645;43.068;25.610;2022-09-09T03:18:18;20.60;57.70
70986;DHT22;58645;43.068;25.610;2022-09-09T03:20:45;20.50;57.70
70986;DHT22;58645;43.068;25.610;2022-09-09T03:23:12;20.50;57.90
70986;DHT22;58645;43.068;25.610;2022-09-09T03:25:39;20.50;57.90
70986;DHT22;58645;43.068;25.610;2022-09-09T03:28:04;20.50;57.90
70986;DHT22;58645;43.068;25.610;2022-09-09T03:30:30;20.50;57.90
70986;DHT22;58645;43.068;25.610;2022-09-09T03:32:56;20.50;57.90
70986;DHT22;58645;43.068;25.610;2022-09-09T03:35:22;20.50;57.90
70986;DHT22;58645;43.068;25.610;2022-09-09T03:37:48;20.50;57.90
70986;DHT22;58645;43.068;25.610;2022-09-09T03:40:14;20.40;57.50
70986;DHT22;58645;43.068;25.610;2022-09-09T03:42:40;20.40;57.80
70986;DHT22;58645;43.068;25.610;2022-09-09T03:45:08;20.30;58.20
70986;DHT22;58645;43.068;25.610;2022-09-09T03:47:35;20.30;58.20
70986;DHT22;58645;43.068;25.610;2022-09-09T03:50:01;20.30;58.40
70986;DHT22;58645;43.068;25.610;2022-09-09T03:52:26;20.20;58.30
70986;DHT22;58645;43.068;25.610;2022-09-09T03:54:53;20.20;58.40
70986;DHT22;58645;43.068;25.610;2022-09-09T03:57:19;20.20;58.50
70986;DHT22;58645;43.068;25.610;2022-09-09T03:59:45;20.20;58.50
70986;DHT22;58645;43.068;25.610;2022-09-09T04:02:11;20.20;58.50
70986;DHT22;58645;43.068;25.610;2022-09-09T04:04:36;20.20;58.40
70986;DHT22;58645;43.068;25.610;2022-09-09T04:07:02;20.20;58.50
70986;DHT22;58645;43.068;25.610;2022-09-09T04:09:28;20.20;58.10
70986;DHT22;58645;43.068;25.610;2022-09-09T04:11:54;20.20;58.30
70986;DHT22;58645;43.068;25.610;2022-09-09T04:14:20;20.30;58.30
70986;DHT22;58645;43.068;25.610;2022-09-09T04:16:46;20.30;58.30
70986;DHT22;58645;43.068;25.610;2022-09-09T04:19:12;20.30;57.80
70986;DHT22;58645;43.068;25.610;2022-09-09T04:21:40;20.40;57.90
70986;DHT22;58645;43.068;25.610;2022-09-09T04:24:08;20.40;57.70
70986;DHT22;58645;43.068;25.610;2022-09-09T04:26:34;20.50;57.70
70986;DHT22;58645;43.068;25.610;2022-09-09T04:29:02;20.50;57.90
70986;DHT22;58645;43.068;25.610;2022-09-09T04:31:29;20.60;57.90
70986;DHT22;58645;43.068;25.610;2022-09-09T04:33:55;20.70;57.90
70986;DHT22;58645;43.068;25.610;2022-09-09T04:36:22;20.70;57.60
70986;DHT22;58645;43.068;25.610;2022-09-09T04:38:48;20.80;57.50
70986;DHT22;58645;43.068;25.610;2022-09-09T04:41:16;21.00;57.00
70986;DHT22;58645;43.068;25.610;2022-09-09T04:43:43;21.20;56.90
70986;DHT22;58645;43.068;25.610;2022-09-09T04:46:09;21.30;56.70
70986;DHT22;58645;43.068;25.610;2022-09-09T04:48:34;21.50;56.60
70986;DHT22;58645;43.068;25.610;2022-09-09T04:51:10;21.60;56.00
70986;DHT22;58645;43.068;25.610;2022-09-09T04:53:36;21.80;55.00
70986;DHT22;58645;43.068;25.610;2022-09-09T04:56:05;22.00;54.00
70986;DHT22;58645;43.068;25.610;2022-09-09T04:58:31;22.20;53.60
70986;DHT22;58645;43.068;25.610;2022-09-09T05:01:05;22.70;52.40
70986;DHT22;58645;43.068;25.610;2022-09-09T05:03:31;23.50;50.70
70986;DHT22;58645;43.068;25.610;2022-09-09T05:06:04;24.00;49.60
70986;DHT22;58645;43.068;25.610;2022-09-09T05:08:30;24.40;48.40
70986;DHT22;58645;43.068;25.610;2022-09-09T05:10:56;24.80;47.90
70986;DHT22;58645;43.068;25.610;2022-09-09T05:13:21;25.20;46.30
70986;DHT22;58645;43.068;25.610;2022-09-09T05:15:57;25.10;46.50
70986;DHT22;58645;43.068;25.610;2022-09-09T05:18:26;25.70;45.00
70986;DHT22;58645;43.068;25.610;2022-09-09T05:20:58;26.00;44.00
70986;DHT22;58645;43.068;25.610;2022-09-09T05:23:24;26.20;43.60
70986;DHT22;58645;43.068;25.610;2022-09-09T05:25:54;26.70;42.70
70986;DHT22;58645;43.068;25.610;2022-09-09T05:28:20;26.90;41.90
70986;DHT22;58645;43.068;25.610;2022-09-09T05:30:46;27.30;41.00
70986;DHT22;58645;43.068;25.610;2022-09-09T05:33:12;27.10;41.60
70986;DHT22;58645;43.068;25.610;2022-09-09T05:35:37;27.40;41.30
70986;DHT22;58645;43.068;25.610;2022-09-09T05:38:03;27.50;40.90
70986;DHT22;58645;43.068;25.610;2022-09-09T05:40:29;28.20;39.70
70986;DHT22;58645;43.068;25.610;2022-09-09T05:42:59;28.50;38.40
70986;DHT22;58645;43.068;25.610;2022-09-09T05:45:25;28.80;38.60
70986;DHT22;58645;43.068;25.610;2022-09-09T05:47:52;29.00;38.30
70986;DHT22;58645;43.068;25.610;2022-09-09T05:50:20;29.30;37.90
70986;DHT22;58645;43.068;25.610;2022-09-09T05:52:46;29.60;37.10
70986;DHT22;58645;43.068;25.610;2022-09-09T05:55:13;29.60;36.20
70986;DHT22;58645;43.068;25.610;2022-09-09T05:57:39;29.70;36.20
70986;DHT22;58645;43.068;25.610;2022-09-09T06:00:05;30.20;36.70
70986;DHT22;58645;43.068;25.610;2022-09-09T06:02:31;30.50;36.00
70986;DHT22;58645;43.068;25.610;2022-09-09T06:04:57;30.80;35.50
70986;DHT22;58645;43.068;25.610;2022-09-09T06:07:23;31.10;34.70
70986;DHT22;58645;43.068;25.610;2022-09-09T06:09:49;31.00;35.30
70986;DHT22;58645;43.068;25.610;2022-09-09T06:12:16;31.50;35.10
70986;DHT22;58645;43.068;25.610;2022-09-09T06:14:42;31.90;34.20
70986;DHT22;58645;43.068;25.610;2022-09-09T06:17:08;32.00;33.00
70986;DHT22;58645;43.068;25.610;2022-09-09T06:19:34;32.10;34.00
70986;DHT22;58645;43.068;25.610;2022-09-09T06:22:00;31.90;31.80
70986;DHT22;58645;43.068;25.610;2022-09-09T06:24:25;31.90;32.60
70986;DHT22;58645;43.068;25.610;2022-09-09T06:26:51;31.80;32.40
70986;DHT22;58645;43.068;25.610;2022-09-09T06:29:17;32.40;32.70
70986;DHT22;58645;43.068;25.610;2022-09-09T06:31:43;32.60;32.10
70986;DHT22;58645;43.068;25.610;2022-09-09T06:34:09;33.00;31.50
70986;DHT22;58645;43.068;25.610;2022-09-09T06:36:37;33.30;30.50
70986;DHT22;58645;43.068;25.610;2022-09-09T06:39:04;33.30;30.10
70986;DHT22;58645;43.068;25.610;2022-09-09T06:41:31;33.40;30.20
70986;DHT22;58645;43.068;25.610;2022-09-09T06:43:58;34.10;29.60
70986;DHT22;58645;43.068;25.610;2022-09-09T06:46:29;34.60;27.60
70986;DHT22;58645;43.068;25.610;2022-09-09T06:48:56;34.90;27.90
70986;DHT22;58645;43.068;25.610;2022-09-09T06:51:25;35.30;26.90
70986;DHT22;58645;43.068;25.610;2022-09-09T06:53:53;35.30;26.70
70986;DHT22;58645;43.068;25.610;2022-09-09T06:56:31;34.90;26.30
70986;DHT22;58645;43.068;25.610;2022-09-09T06:58:59;34.70;27.50
70986;DHT22;58645;43.068;25.610;2022-09-09T07:01:34;35.00;27.60
70986;DHT22;58645;43.068;25.610;2022-09-09T07:04:01;35.00;27.40
70986;DHT22;58645;43.068;25.610;2022-09-09T07:06:29;35.40;28.30
70986;DHT22;58645;43.068;25.610;2022-09-09T07:09:00;35.80;26.80
70986;DHT22;58645;43.068;25.610;2022-09-09T07:11:28;35.80;25.60
70986;DHT22;58645;43.068;25.610;2022-09-09T07:13:54;35.70;25.70
70986;DHT22;58645;43.068;25.610;2022-09-09T07:16:22;36.20;26.10
70986;DHT22;58645;43.068;25.610;2022-09-09T07:18:51;36.50;25.70
70986;DHT22;58645;43.068;25.610;2022-09-09T07:21:18;37.20;25.60
70986;DHT22;58645;43.068;25.610;2022-09-09T07:23:45;36.90;25.60
70986;DHT22;58645;43.068;25.610;2022-09-09T07:26:16;36.90;24.40
70986;DHT22;58645;43.068;25.610;2022-09-09T07:28:42;37.20;25.10
70986;DHT22;58645;43.068;25.610;2022-09-09T07:31:20;37.70;24.00
70986;DHT22;58645;43.068;25.610;2022-09-09T07:33:47;37.60;23.70
70986;DHT22;58645;43.068;25.610;2022-09-09T07:36:40;37.70;23.20
70986;DHT22;58645;43.068;25.610;2022-09-09T07:39:10;37.80;23.30
70986;DHT22;58645;43.068;25.610;2022-09-09T07:41:45;38.00;24.50
70986;DHT22;58645;43.068;25.610;2022-09-09T07:44:16;37.70;23.20
70986;DHT22;58645;43.068;25.610;2022-09-09T07:46:43;38.00;23.50
70986;DHT22;58645;43.068;25.610;2022-09-09T07:49:10;38.40;22.70
70986;DHT22;58645;43.068;25.610;2022-09-09T07:51:43;38.60;22.10
70986;DHT22;58645;43.068;25.610;2022-09-09T07:54:11;38.90;21.90
70986;DHT22;58645;43.068;25.610;2022-09-09T07:56:38;38.50;22.10
70986;DHT22;58645;43.068;25.610;2022-09-09T07:59:05;38.70;21.60
70986;DHT22;58645;43.068;25.610;2022-09-09T08:01:37;38.60;21.60
70986;DHT22;58645;43.068;25.610;2022-09-09T08:04:10;38.60;21.30
70986;DHT22;58645;43.068;25.610;2022-09-09T08:06:45;38.00;22.10
70986;DHT22;58645;43.068;25.610;2022-09-09T08:09:11;38.00;22.30
70986;DHT22;58645;43.068;25.610;2022-09-09T08:11:39;38.10;21.90
70986;DHT22;58645;43.068;25.610;2022-09-09T08:14:06;38.40;21.50
70986;DHT22;58645;43.068;25.610;2022-09-09T08:16:35;37.00;23.20
70986;DHT22;58645;43.068;25.610;2022-09-09T08:19:02;37.50;23.00
70986;DHT22;58645;43.068;25.610;2022-09-09T08:21:30;37.50;22.80
70986;DHT22;58645;43.068;25.610;2022-09-09T08:23:59;38.00;22.00
70986;DHT22;58645;43.068;25.610;2022-09-09T08:26:33;37.90;21.90
70986;DHT22;58645;43.068;25.610;2022-09-09T08:29:00;38.00;22.40
70986;DHT22;58645;43.068;25.610;2022-09-09T08:31:35;38.30;22.10
70986;DHT22;58645;43.068;25.610;2022-09-09T08:34:03;39.00;21.30
70986;DHT22;58645;43.068;25.610;2022-09-09T08:36:32;38.60;21.20
70986;DHT22;58645;43.068;25.610;2022-09-09T08:39:03;38.60;20.90
70986;DHT22;58645;43.068;25.610;2022-09-09T08:47:39;37.50;23.20
70986;DHT22;58645;43.068;25.610;2022-09-09T08:50:29;37.90;22.10
70986;DHT22;58645;43.068;25.610;2022-09-09T08:53:20;38.40;21.70
70986;DHT22;58645;43.068;25.610;2022-09-09T08:55:56;38.80;21.90
70986;DHT22;58645;43.068;25.610;2022-09-09T08:58:35;38.60;22.10
70986;DHT22;58645;43.068;25.610;2022-09-09T09:11:21;37.90;22.90
70986;DHT22;58645;43.068;25.610;2022-09-09T09:19:02;37.60;22.90
70986;DHT22;58645;43.068;25.610;2022-09-09T09:21:48;37.80;23.50
70986;DHT22;58645;43.068;25.610;2022-09-09T09:24:24;38.10;22.80
70986;DHT22;58645;43.068;25.610;2022-09-09T09:26:52;37.80;22.90
70986;DHT22;58645;43.068;25.610;2022-09-09T09:29:20;38.30;23.90
70986;DHT22;58645;43.068;25.610;2022-09-09T09:31:55;38.10;22.60
70986;DHT22;58645;43.068;25.610;2022-09-09T09:34:23;38.20;22.90
70986;DHT22;58645;43.068;25.610;2022-09-09T09:36:56;38.50;22.80
70986;DHT22;58645;43.068;25.610;2022-09-09T09:39:27;38.70;22.00
70986;DHT22;58645;43.068;25.610;2022-09-09T09:41:54;38.50;22.40
70986;DHT22;58645;43.068;25.610;2022-09-09T09:44:26;38.40;22.30
70986;DHT22;58645;43.068;25.610;2022-09-09T09:46:53;38.20;23.40
70986;DHT22;58645;43.068;25.610;2022-09-09T09:49:30;38.70;22.10
70986;DHT22;58645;43.068;25.610;2022-09-09T09:52:01;38.20;22.50
70986;DHT22;58645;43.068;25.610;2022-09-09T09:54:33;37.80;23.20
70986;DHT22;58645;43.068;25.610;2022-09-09T09:57:16;37.60;24.00
70986;DHT22;58645;43.068;25.610;2022-09-09T09:59:42;38.20;24.40
70986;DHT22;58645;43.068;25.610;2022-09-09T10:02:25;38.50;22.80
70986;DHT22;58645;43.068;25.610;2022-09-09T10:05:04;38.20;23.00
70986;DHT22;58645;43.068;25.610;2022-09-09T10:07:30;38.00;23.40
70986;DHT22;58645;43.068;25.610;2022-09-09T10:09:57;37.90;23.50
70986;DHT22;58645;43.068;25.610;2022-09-09T10:51:28;38.50;22.80
70986;DHT22;58645;43.068;25.610;2022-09-09T10:56:30;37.90;23.70
70986;DHT22;58645;43.068;25.610;2022-09-09T10:59:00;37.80;24.00
70986;DHT22;58645;43.068;25.610;2022-09-09T11:01:38;37.30;25.30
70986;DHT22;58645;43.068;25.610;2022-09-09T11:04:32;37.10;25.60
70986;DHT22;58645;43.068;25.610;2022-09-09T11:07:00;36.80;25.10
70986;DHT22;58645;43.068;25.610;2022-09-09T11:09:35;37.20;25.30
70986;DHT22;58645;43.068;25.610;2022-09-09T11:12:03;36.80;25.70
70986;DHT22;58645;43.068;25.610;2022-09-09T11:17:16;37.00;25.50
70986;DHT22;58645;43.068;25.610;2022-09-09T11:19:44;37.00;25.40
70986;DHT22;58645;43.068;25.610;2022-09-09T11:39:37;36.80;25.70
70986;DHT22;58645;43.068;25.610;2022-09-09T11:44:40;35.70;26.90
70986;DHT22;58645;43.068;25.610;2022-09-09T11:47:27;35.40;28.40
70986;DHT22;58645;43.068;25.610;2022-09-09T11:52:41;34.30;30.00
70986;DHT22;58645;43.068;25.610;2022-09-09T11:55:29;34.30;30.50
70986;DHT22;58645;43.068;25.610;2022-09-09T12:03:50;35.60;27.70
70986;DHT22;58645;43.068;25.610;2022-09-09T12:05:51;36.10;27.60
70986;DHT22;58645;43.068;25.610;2022-09-09T12:08:26;36.70;26.10
70986;DHT22;58645;43.068;25.610;2022-09-09T12:10:59;36.90;25.80
70986;DHT22;58645;43.068;25.610;2022-09-09T12:13:26;37.20;25.80
70986;DHT22;58645;43.068;25.610;2022-09-09T12:15:53;37.80;24.40
70986;DHT22;58645;43.068;25.610;2022-09-09T12:18:24;38.30;23.70
70986;DHT22;58645;43.068;25.610;2022-09-09T12:21:28;38.40;23.60
70986;DHT22;58645;43.068;25.610;2022-09-09T12:24:09;37.70;23.90
70986;DHT22;58645;43.068;25.610;2022-09-09T12:26:37;37.00;25.80
70986;DHT22;58645;43.068;25.610;2022-09-09T12:29:28;36.40;26.20
70986;DHT22;58645;43.068;25.610;2022-09-09T12:34:59;36.00;27.10
70986;DHT22;58645;43.068;25.610;2022-09-09T12:37:49;36.20;26.80
70986;DHT22;58645;43.068;25.610;2022-09-09T12:40:24;36.50;26.30
70986;DHT22;58645;43.068;25.610;2022-09-09T12:42:50;35.80;27.10
70986;DHT22;58645;43.068;25.610;2022-09-09T12:45:36;35.20;28.70
70986;DHT22;58645;43.068;25.610;2022-09-09T12:48:10;34.50;29.90
70986;DHT22;58645;43.068;25.610;2022-09-09T12:50:51;33.90;30.50
70986;DHT22;58645;43.068;25.610;2022-09-09T12:53:36;33.60;31.30
70986;DHT22;58645;43.068;25.610;2022-09-09T12:56:09;33.20;32.50
70986;DHT22;58645;43.068;25.610;2022-09-09T12:58:38;33.00;32.90
70986;DHT22;58645;43.068;25.610;2022-09-09T13:01:17;32.70;33.20
70986;DHT22;58645;43.068;25.610;2022-09-09T13:03:44;32.40;34.00
70986;DHT22;58645;43.068;25.610;2022-09-09T13:06:13;32.20;34.60
70986;DHT22;58645;43.068;25.610;2022-09-09T13:08:43;32.10;34.90
70986;DHT22;58645;43.068;25.610;2022-09-09T13:11:17;32.00;35.40
70986;DHT22;58645;43.068;25.610;2022-09-09T13:13:51;31.90;35.20
70986;DHT22;58645;43.068;25.610;2022-09-09T13:16:22;31.70;35.70
70986;DHT22;58645;43.068;25.610;2022-09-09T13:18:48;31.60;36.00
70986;DHT22;58645;43.068;25.610;2022-09-09T13:21:15;31.60;36.10
70986;DHT22;58645;43.068;25.610;2022-09-09T13:23:41;31.60;36.20
70986;DHT22;58645;43.068;25.610;2022-09-09T13:26:21;31.50;36.30
70986;DHT22;58645;43.068;25.610;2022-09-09T13:28:48;31.40;36.80
70986;DHT22;58645;43.068;25.610;2022-09-09T13:31:33;31.30;37.10
70986;DHT22;58645;43.068;25.610;2022-09-09T13:33:59;31.10;37.60
70986;DHT22;58645;43.068;25.610;2022-09-09T13:36:33;31.00;38.10
70986;DHT22;58645;43.068;25.610;2022-09-09T13:39:02;30.90;38.00
70986;DHT22;58645;43.068;25.610;2022-09-09T13:41:45;30.80;38.40
70986;DHT22;58645;43.068;25.610;2022-09-09T13:44:21;30.70;38.60
70986;DHT22;58645;43.068;25.610;2022-09-09T13:47:33;30.60;39.00
70986;DHT22;58645;43.068;25.610;2022-09-09T13:49:51;30.50;39.40
70986;DHT22;58645;43.068;25.610;2022-09-09T13:52:18;30.50;39.60
70986;DHT22;58645;43.068;25.610;2022-09-09T13:54:48;30.40;39.80
70986;DHT22;58645;43.068;25.610;2022-09-09T13:57:25;30.40;40.00
70986;DHT22;58645;43.068;25.610;2022-09-09T13:59:52;30.40;40.20
70986;DHT22;58645;43.068;25.610;2022-09-09T14:02:18;30.30;40.30
70986;DHT22;58645;43.068;25.610;2022-09-09T14:04:44;30.30;40.30
70986;DHT22;58645;43.068;25.610;2022-09-09T14:07:14;30.50;40.30
70986;DHT22;58645;43.068;25.610;2022-09-09T14:09:41;30.60;40.20
70986;DHT22;58645;43.068;25.610;2022-09-09T14:12:11;30.60;40.20
70986;DHT22;58645;43.068;25.610;2022-09-09T14:14:37;30.70;39.80
70986;DHT22;58645;43.068;25.610;2022-09-09T14:17:08;30.70;39.90
70986;DHT22;58645;43.068;25.610;2022-09-09T14:19:34;30.60;40.20
70986;DHT22;58645;43.068;25.610;2022-09-09T14:22:00;30.70;40.20
70986;DHT22;58645;43.068;25.610;2022-09-09T14:24:26;30.70;40.20
70986;DHT22;58645;43.068;25.610;2022-09-09T14:26:53;30.80;40.20
70986;DHT22;58645;43.068;25.610;2022-09-09T14:29:20;30.80;40.40
70986;DHT22;58645;43.068;25.610;2022-09-09T14:31:45;30.80;40.20
70986;DHT22;58645;43.068;25.610;2022-09-09T14:34:12;30.70;40.20
70986;DHT22;58645;43.068;25.610;2022-09-09T14:36:40;30.60;40.70
70986;DHT22;58645;43.068;25.610;2022-09-09T14:39:07;30.60;40.90
70986;DHT22;58645;43.068;25.610;2022-09-09T14:41:32;30.50;41.10
70986;DHT22;58645;43.068;25.610;2022-09-09T14:43:59;30.40;41.30
70986;DHT22;58645;43.068;25.610;2022-09-09T14:46:25;30.30;41.80
70986;DHT22;58645;43.068;25.610;2022-09-09T14:48:52;30.20;41.90
70986;DHT22;58645;43.068;25.610;2022-09-09T14:51:24;30.20;42.10
70986;DHT22;58645;43.068;25.610;2022-09-09T14:53:54;30.10;42.60
70986;DHT22;58645;43.068;25.610;2022-09-09T14:56:22;30.10;42.60
70986;DHT22;58645;43.068;25.610;2022-09-09T14:58:49;30.10;42.90
70986;DHT22;58645;43.068;25.610;2022-09-09T15:01:17;30.10;42.90
70986;DHT22;58645;43.068;25.610;2022-09-09T15:03:48;30.10;42.90
70986;DHT22;58645;43.068;25.610;2022-09-09T15:06:14;30.10;43.00
70986;DHT22;58645;43.068;25.610;2022-09-09T15:08:43;30.10;43.10
70986;DHT22;58645;43.068;25.610;2022-09-09T15:11:10;30.10;43.30
70986;DHT22;58645;43.068;25.610;2022-09-09T15:13:38;30.00;43.60
70986;DHT22;58645;43.068;25.610;2022-09-09T15:16:18;30.00;43.70
70986;DHT22;58645;43.068;25.610;2022-09-09T15:18:45;30.00;43.90
70986;DHT22;58645;43.068;25.610;2022-09-09T15:21:16;30.00;44.00
70986;DHT22;58645;43.068;25.610;2022-09-09T15:23:44;29.90;43.40
70986;DHT22;58645;43.068;25.610;2022-09-09T15:26:11;29.90;43.60
70986;DHT22;58645;43.068;25.610;2022-09-09T15:28:39;29.90;43.90
70986;DHT22;58645;43.068;25.610;2022-09-09T15:36:18;29.80;44.20
70986;DHT22;58645;43.068;25.610;2022-09-09T15:38:45;29.70;44.20
70986;DHT22;58645;43.068;25.610;2022-09-09T15:41:12;29.70;44.50
70986;DHT22;58645;43.068;25.610;2022-09-09T15:43:42;29.60;44.90
70986;DHT22;58645;43.068;25.610;2022-09-09T15:48:44;29.60;44.60
70986;DHT22;58645;43.068;25.610;2022-09-09T15:51:10;29.50;44.70
70986;DHT22;58645;43.068;25.610;2022-09-09T15:53:37;29.50;45.00
70986;DHT22;58645;43.068;25.610;2022-09-09T15:56:05;29.40;45.00
70986;DHT22;58645;43.068;25.610;2022-09-09T15:58:35;29.40;45.30
70986;DHT22;58645;43.068;25.610;2022-09-09T16:01:07;29.40;45.50
70986;DHT22;58645;43.068;25.610;2022-09-09T16:03:41;29.30;45.50
70986;DHT22;58645;43.068;25.610;2022-09-09T16:06:18;29.30;45.80
70986;DHT22;58645;43.068;25.610;2022-09-09T16:08:45;29.20;45.90
70986;DHT22;58645;43.068;25.610;2022-09-09T16:11:17;29.10;45.70
70986;DHT22;58645;43.068;25.610;2022-09-09T16:13:46;29.10;46.00
70986;DHT22;58645;43.068;25.610;2022-09-09T16:16:15;29.00;46.50
70986;DHT22;58645;43.068;25.610;2022-09-09T16:18:42;29.00;46.30
70986;DHT22;58645;43.068;25.610;2022-09-09T16:21:16;28.90;46.00
70986;DHT22;58645;43.068;25.610;2022-09-09T16:23:43;28.90;46.20
70986;DHT22;58645;43.068;25.610;2022-09-09T16:26:12;28.90;46.00
70986;DHT22;58645;43.068;25.610;2022-09-09T16:28:39;28.80;46.00
70986;DHT22;58645;43.068;25.610;2022-09-09T16:31:09;28.70;46.10
70986;DHT22;58645;43.068;25.610;2022-09-09T16:33:36;28.70;46.80
70986;DHT22;58645;43.068;25.610;2022-09-09T16:36:11;28.60;46.50
70986;DHT22;58645;43.068;25.610;2022-09-09T16:38:38;28.60;47.00
70986;DHT22;58645;43.068;25.610;2022-09-09T16:41:05;28.50;47.00
70986;DHT22;58645;43.068;25.610;2022-09-09T16:43:35;28.50;47.10
70986;DHT22;58645;43.068;25.610;2022-09-09T16:46:03;28.50;47.00
70986;DHT22;58645;43.068;25.610;2022-09-09T16:48:33;28.50;47.40
70986;DHT22;58645;43.068;25.610;2022-09-09T16:51:06;28.40;48.00
70986;DHT22;58645;43.068;25.610;2022-09-09T16:53:33;28.30;48.40
70986;DHT22;58645;43.068;25.610;2022-09-09T16:56:08;28.30;48.80
70986;DHT22;58645;43.068;25.610;2022-09-09T16:58:34;28.20;48.80
70986;DHT22;58645;43.068;25.610;2022-09-09T17:01:01;28.20;49.20
70986;DHT22;58645;43.068;25.610;2022-09-09T17:03:30;28.10;49.50
70986;DHT22;58645;43.068;25.610;2022-09-09T17:05:57;28.00;49.70
70986;DHT22;58645;43.068;25.610;2022-09-09T17:08:24;28.00;49.80
70986;DHT22;58645;43.068;25.610;2022-09-09T17:10:50;28.00;49.90
70986;DHT22;58645;43.068;25.610;2022-09-09T17:13:16;27.90;49.40
70986;DHT22;58645;43.068;25.610;2022-09-09T17:15:45;27.90;49.80
70986;DHT22;58645;43.068;25.610;2022-09-09T17:18:11;27.80;49.90
70986;DHT22;58645;43.068;25.610;2022-09-09T17:20:41;27.80;49.90
70986;DHT22;58645;43.068;25.610;2022-09-09T17:23:08;27.70;50.30
70986;DHT22;58645;43.068;25.610;2022-09-09T17:25:34;27.70;50.20
70986;DHT22;58645;43.068;25.610;2022-09-09T17:28:01;27.70;50.30
70986;DHT22;58645;43.068;25.610;2022-09-09T17:30:30;27.70;50.50
70986;DHT22;58645;43.068;25.610;2022-09-09T17:32:56;27.60;50.50
70986;DHT22;58645;43.068;25.610;2022-09-09T17:35:22;27.50;50.80
70986;DHT22;58645;43.068;25.610;2022-09-09T17:37:48;27.60;51.10
70986;DHT22;58645;43.068;25.610;2022-09-09T17:40:14;27.40;51.40
70986;DHT22;58645;43.068;25.610;2022-09-09T17:42:39;27.30;51.70
70986;DHT22;58645;43.068;25.610;2022-09-09T17:45:06;27.30;52.10
70986;DHT22;58645;43.068;25.610;2022-09-09T17:47:32;27.20;52.50
70986;DHT22;58645;43.068;25.610;2022-09-09T17:49:58;27.10;52.80
70986;DHT22;58645;43.068;25.610;2022-09-09T17:52:24;27.00;53.20
70986;DHT22;58645;43.068;25.610;2022-09-09T17:54:49;27.00;53.40
70986;DHT22;58645;43.068;25.610;2022-09-09T17:57:16;26.80;53.60
70986;DHT22;58645;43.068;25.610;2022-09-09T17:59:44;26.80;53.60
70986;DHT22;58645;43.068;25.610;2022-09-09T18:02:11;26.80;53.90